createdAt,value
2018-11-20T00:02:35.042Z,4.30
2018-11-20T00:05:36.144Z,4.20
2018-11-20T00:11:28.982Z,4.10
2018-11-20T00:14:18.271Z,4.00
2018-11-20T00:17:18.918Z,4.00
2018-11-20T00:20:24.861Z,3.90
2018-11-20T00:23:24.810Z,3.90
2018-11-20T00:26:24.162Z,3.90
2018-11-20T00:29:12.090Z,3.90
2018-11-20T00:32:11.658Z,4.00
2018-11-20T00:35:11.734Z,4.00
2018-11-20T00:38:07.581Z,4.10
2018-11-20T00:41:09.828Z,4.20
2018-11-20T00:44:00.184Z,4.20
2018-11-20T00:46:49.973Z,4.30
2018-11-20T00:49:49.597Z,4.30
2018-11-20T00:52:48.801Z,4.40
2018-11-20T00:55:50.218Z,4.30
2018-11-20T00:58:42.858Z,4.40
2018-11-20T01:04:48.123Z,4.20
2018-11-20T01:07:53.337Z,4.20
2018-11-20T01:10:59.461Z,4.30
2018-11-20T01:14:01.741Z,4.30
2018-11-20T01:17:01.027Z,4.30
2018-11-20T01:20:00.663Z,4.40
2018-11-20T01:22:48.265Z,4.30
2018-11-20T01:25:51.192Z,4.30
2018-11-20T01:28:50.671Z,4.20
2018-11-20T01:31:39.353Z,4.20
2018-11-20T01:34:34.173Z,4.20
2018-11-20T01:37:21.988Z,4.20
2018-11-20T01:40:14.986Z,4.20
2018-11-20T01:42:55.612Z,4.20
2018-11-20T01:45:55.532Z,4.20
2018-11-20T01:48:58.117Z,4.20
2018-11-20T01:51:51.073Z,4.30
2018-11-20T01:54:50.837Z,4.30
2018-11-20T01:57:57.069Z,4.30
2018-11-20T02:00:57.215Z,4.30
2018-11-20T02:03:57.400Z,4.40
2018-11-20T02:06:57.124Z,4.50
2018-11-20T02:10:00.233Z,4.50
2018-11-20T02:13:01.241Z,4.40
2018-11-20T02:15:57.409Z,4.50
2018-11-20T02:18:56.826Z,4.50
2018-11-20T02:25:10.725Z,4.50
2018-11-20T02:28:10.460Z,4.60
2018-11-20T02:31:12.719Z,4.60
2018-11-20T02:34:13.371Z,4.50
2018-11-20T02:37:00.565Z,4.50
2018-11-20T02:39:52.271Z,4.50
2018-11-20T02:45:56.304Z,4.70
2018-11-20T02:48:57.590Z,4.70
2018-11-20T02:54:58.437Z,4.60
2018-11-20T03:01:02.203Z,4.50
2018-11-20T03:04:02.721Z,4.60
2018-11-20T03:07:02.603Z,4.60
2018-11-20T03:10:02.157Z,4.70
2018-11-20T03:12:59.158Z,4.70
2018-11-20T03:15:59.349Z,4.70
2018-11-20T03:18:49.885Z,4.70
2018-11-20T03:21:44.453Z,4.70
2018-11-20T03:24:45.877Z,4.60
2018-11-20T03:30:51.656Z,4.70
2018-11-20T03:36:56.549Z,4.50
2018-11-20T03:39:52.604Z,4.40
2018-11-20T03:42:46.078Z,4.40
2018-11-20T03:45:46.935Z,4.50
2018-11-20T03:48:45.215Z,4.50
2018-11-20T03:51:44.588Z,4.60
2018-11-20T03:54:44.078Z,4.70
2018-11-20T03:57:45.141Z,4.60
2018-11-20T04:00:27.013Z,4.70
2018-11-20T04:03:29.480Z,4.70
2018-11-20T04:06:29.016Z,4.70
2018-11-20T04:09:31.769Z,4.70
2018-11-20T04:12:32.894Z,4.70
2018-11-20T04:15:33.101Z,4.80
2018-11-20T04:18:34.293Z,4.80
2018-11-20T04:21:35.666Z,4.70
2018-11-20T04:27:39.484Z,4.80
2018-11-20T04:30:42.244Z,4.80
2018-11-20T04:33:45.065Z,4.70
2018-11-20T04:36:27.087Z,4.70
2018-11-20T04:42:33.788Z,4.70
2018-11-20T04:48:31.537Z,4.70
2018-11-20T04:51:31.848Z,4.70
2018-11-20T04:54:33.234Z,4.70
2018-11-20T04:57:33.555Z,4.70
2018-11-20T05:03:38.463Z,4.70
2018-11-20T05:09:43.455Z,4.80
2018-11-20T05:12:34.303Z,4.80
2018-11-20T05:15:27.880Z,4.80
2018-11-20T05:18:28.789Z,4.80
2018-11-20T05:24:33.565Z,4.80
2018-11-20T05:30:38.487Z,4.80
2018-11-20T05:33:44.709Z,4.70
2018-11-20T05:39:49.635Z,4.80
2018-11-20T05:42:49.673Z,4.80
2018-11-20T05:45:50.976Z,4.70
2018-11-20T05:48:52.071Z,4.70
2018-11-20T05:54:48.413Z,4.70
2018-11-20T05:57:40.678Z,4.70
2018-11-20T06:00:41.525Z,4.70
2018-11-20T06:03:42.589Z,4.60
2018-11-20T06:09:44.392Z,4.70
2018-11-20T06:15:50.849Z,4.80
2018-11-20T06:18:42.286Z,4.70
2018-11-20T06:21:35.660Z,4.70
2018-11-20T06:24:27.789Z,4.80
2018-11-20T06:27:27.955Z,4.80
2018-11-20T06:30:28.853Z,4.80
2018-11-20T06:36:33.770Z,4.80
2018-11-20T06:42:37.509Z,4.80
2018-11-20T06:45:38.627Z,4.80
2018-11-20T06:51:41.740Z,4.80
2018-11-20T06:54:41.026Z,4.80
2018-11-20T06:57:42.409Z,4.80
2018-11-20T07:00:42.479Z,4.80
2018-11-20T07:03:42.609Z,4.80
2018-11-20T07:06:45.252Z,4.90
2018-11-20T07:09:44.837Z,4.80
2018-11-20T07:12:45.094Z,4.80
2018-11-20T07:15:44.784Z,4.90
2018-11-20T07:18:44.259Z,5.00
2018-11-20T07:21:42.024Z,5.00
2018-11-20T07:24:47.523Z,5.00
2018-11-20T07:27:53.013Z,5.10
2018-11-20T07:30:52.577Z,5.00
2018-11-20T07:33:59.587Z,5.00
2018-11-20T07:37:06.891Z,5.00
2018-11-20T07:40:13.886Z,5.00
2018-11-20T07:43:21.049Z,5.00
2018-11-20T07:46:28.167Z,5.10
2018-11-20T07:49:35.563Z,5.10
2018-11-20T07:52:42.729Z,5.10
2018-11-20T07:55:49.893Z,5.20
2018-11-20T07:58:57.019Z,5.30
2018-11-20T08:02:04.203Z,5.30
2018-11-20T08:05:11.353Z,5.30
2018-11-20T08:08:18.569Z,5.40
2018-11-20T08:11:25.694Z,5.40
2018-11-20T08:14:32.842Z,5.50
2018-11-20T08:17:40.006Z,5.50
2018-11-20T08:20:47.144Z,5.50
2018-11-20T08:23:54.316Z,5.30
2018-11-20T08:27:01.452Z,5.40
2018-11-20T08:29:59.119Z,5.50
2018-11-20T08:33:06.290Z,5.60
2018-11-20T08:36:13.446Z,5.50
2018-11-20T08:39:20.601Z,5.60
2018-11-20T08:42:17.256Z,5.70
2018-11-20T08:45:24.414Z,5.60
2018-11-20T08:48:31.628Z,5.60
2018-11-20T08:51:38.683Z,5.70
2018-11-20T08:54:45.826Z,5.70
2018-11-20T08:57:53.002Z,5.80
2018-11-20T09:01:00.145Z,5.80
2018-11-20T09:04:07.325Z,5.80
2018-11-20T09:07:14.494Z,5.80
2018-11-20T09:10:21.663Z,5.80
2018-11-20T09:13:28.811Z,5.90
2018-11-20T09:16:35.944Z,6.00
2018-11-20T09:19:43.086Z,5.90
2018-11-20T09:22:50.210Z,6.00
2018-11-20T09:25:50.163Z,6.00
2018-11-20T09:28:57.210Z,6.00
2018-11-20T09:32:04.345Z,6.10
2018-11-20T09:35:05.091Z,6.20
2018-11-20T09:38:12.099Z,6.20
2018-11-20T09:41:19.243Z,6.30
2018-11-20T09:44:45.405Z,6.40
2018-11-20T09:47:52.534Z,6.50
2018-11-20T09:50:59.669Z,6.60
2018-11-20T09:54:06.852Z,6.60
2018-11-20T09:57:05.097Z,6.70
2018-11-20T10:00:12.239Z,6.60
2018-11-20T10:03:19.372Z,6.70
2018-11-20T10:06:26.532Z,6.70
2018-11-20T10:09:33.674Z,6.80
2018-11-20T10:12:40.837Z,6.80
2018-11-20T10:15:47.986Z,6.80
2018-11-20T10:18:55.109Z,6.90
2018-11-20T10:22:02.345Z,7.00
2018-11-20T10:25:09.468Z,6.90
2018-11-20T10:28:16.555Z,6.90
2018-11-20T10:31:23.782Z,6.90
2018-11-20T10:34:30.998Z,6.70
2018-11-20T10:37:38.121Z,6.80
2018-11-20T10:40:45.487Z,6.90
2018-11-20T10:43:52.622Z,7.00
2018-11-20T10:46:59.763Z,6.90
2018-11-20T10:50:06.916Z,6.90
2018-11-20T10:53:14.298Z,7.00
2018-11-20T10:56:21.472Z,6.90
2018-11-20T10:59:28.644Z,7.00
2018-11-20T11:02:35.768Z,7.10
2018-11-20T11:06:01.942Z,7.00
2018-11-20T11:09:09.365Z,6.90
2018-11-20T11:12:16.507Z,6.90
2018-11-20T11:15:23.673Z,7.10
2018-11-20T11:18:30.876Z,7.10
2018-11-20T11:21:38.016Z,7.00
2018-11-20T11:24:45.253Z,6.90
2018-11-20T11:27:52.414Z,6.80
2018-11-20T11:30:59.570Z,6.80
2018-11-20T11:34:06.711Z,6.90
2018-11-20T11:37:13.866Z,6.80
2018-11-20T11:40:21.029Z,6.90
2018-11-20T11:43:28.321Z,7.00
2018-11-20T11:46:35.331Z,7.00
2018-11-20T11:49:42.469Z,7.10
2018-11-20T11:52:49.620Z,7.20
2018-11-20T11:55:56.781Z,7.10
2018-11-20T11:59:03.939Z,7.20
2018-11-20T12:05:17.571Z,7.20
2018-11-20T12:08:24.738Z,7.20
2018-11-20T12:11:31.858Z,7.10
2018-11-20T12:14:39.311Z,7.20
2018-11-20T12:17:46.449Z,7.30
2018-11-20T12:20:53.603Z,7.20
2018-11-20T12:24:00.740Z,7.10
2018-11-20T12:27:07.912Z,7.10
2018-11-20T12:30:15.615Z,7.00
2018-11-20T12:33:23.991Z,7.00
2018-11-20T12:36:30.524Z,7.00
2018-11-20T12:39:38.378Z,7.10
2018-11-20T12:42:41.851Z,7.20
2018-11-20T12:46:12.945Z,7.30
2018-11-20T12:49:14.915Z,7.40
2018-11-20T12:52:23.689Z,7.30
2018-11-20T12:55:29.235Z,7.30
2018-11-20T12:58:36.398Z,7.20
2018-11-20T13:01:43.539Z,7.30
2018-11-20T13:04:50.692Z,7.30
2018-11-20T13:07:57.836Z,7.40
2018-11-20T13:11:05.007Z,7.30
2018-11-20T13:14:12.138Z,7.20
2018-11-20T13:17:08.961Z,7.10
2018-11-20T13:20:08.001Z,6.90
2018-11-20T13:23:13.070Z,6.80
2018-11-20T13:26:17.061Z,6.70
2018-11-20T13:29:24.464Z,6.50
2018-11-20T13:32:31.631Z,6.40
2018-11-20T13:35:38.788Z,6.40
2018-11-20T13:38:45.955Z,6.30
2018-11-20T13:42:12.115Z,6.10
2018-11-20T13:45:19.262Z,6.10
2018-11-20T13:48:26.421Z,6.10
2018-11-20T13:51:33.591Z,6.00
2018-11-20T13:54:40.736Z,6.00
2018-11-20T13:57:47.878Z,6.00
2018-11-20T14:00:55.281Z,5.90
2018-11-20T14:04:02.445Z,5.90
2018-11-20T14:07:09.563Z,5.90
2018-11-20T14:10:16.715Z,5.90
2018-11-20T14:13:21.746Z,5.90
2018-11-20T14:16:28.897Z,5.80
2018-11-20T14:19:36.042Z,5.80
2018-11-20T14:22:41.835Z,5.70
2018-11-20T14:25:49.446Z,5.60
2018-11-20T14:28:56.586Z,5.70
2018-11-20T14:32:03.716Z,5.70
2018-11-20T14:35:11.142Z,5.70
2018-11-20T14:38:18.285Z,5.70
2018-11-20T14:41:25.452Z,5.70
2018-11-20T14:44:32.628Z,5.70
2018-11-20T14:47:39.767Z,5.60
2018-11-20T14:50:46.939Z,5.70
2018-11-20T14:53:56.882Z,5.70
2018-11-20T14:57:01.503Z,5.80
2018-11-20T15:00:08.646Z,6.00
2018-11-20T15:03:08.166Z,6.00
2018-11-20T15:06:00.390Z,5.80
2018-11-20T15:08:50.592Z,5.80
2018-11-20T15:11:50.609Z,5.90
2018-11-20T15:14:50.411Z,5.90
2018-11-20T15:17:50.525Z,5.80
2018-11-20T15:20:50.527Z,5.90
2018-11-20T15:23:38.448Z,5.90
2018-11-20T15:26:38.634Z,5.80
2018-11-20T15:29:37.958Z,5.80
2018-11-20T15:32:37.786Z,5.70
2018-11-20T15:35:37.714Z,5.60
2018-11-20T15:38:37.542Z,5.60
2018-11-20T15:41:37.771Z,5.60
2018-11-20T15:44:34.588Z,5.60
2018-11-20T15:47:34.433Z,5.60
2018-11-20T15:50:22.278Z,5.70
2018-11-20T15:53:21.594Z,5.60
2018-11-20T15:56:21.549Z,5.70
2018-11-20T15:59:21.031Z,5.60
2018-11-20T16:02:26.584Z,5.60
2018-11-20T16:05:26.443Z,5.50
2018-11-20T16:08:26.466Z,5.50
2018-11-20T16:11:26.390Z,5.60
2018-11-20T16:14:25.721Z,5.70
2018-11-20T16:17:28.111Z,5.80
2018-11-20T16:20:27.766Z,5.80
2018-11-20T16:23:27.061Z,5.70
2018-11-20T16:26:26.993Z,5.70
2018-11-20T16:32:42.749Z,5.80
2018-11-20T16:35:43.500Z,5.70
2018-11-20T16:38:43.501Z,5.80
2018-11-20T16:41:49.311Z,5.70
2018-11-20T16:44:41.514Z,5.70
2018-11-20T16:47:41.083Z,5.60
2018-11-20T16:50:40.539Z,5.60
2018-11-20T16:53:40.385Z,5.70
2018-11-20T16:56:38.066Z,5.80
2018-11-20T16:59:40.875Z,5.70
2018-11-20T17:02:36.702Z,5.80
2018-11-20T17:05:33.654Z,5.80
2018-11-20T17:08:34.733Z,5.80
2018-11-20T17:11:35.797Z,5.80
2018-11-20T17:14:24.078Z,5.80
2018-11-20T17:17:27.405Z,5.80
2018-11-20T17:23:30.498Z,6.00
2018-11-20T17:26:31.016Z,6.10
2018-11-20T17:29:31.221Z,6.10
2018-11-20T17:32:29.689Z,6.10
2018-11-20T17:38:34.780Z,6.00
2018-11-20T17:41:29.075Z,6.00
2018-11-20T17:44:22.356Z,5.90
2018-11-20T17:47:23.175Z,5.70
2018-11-20T17:50:18.125Z,5.60
2018-11-20T17:53:19.274Z,5.50
2018-11-20T17:59:12.407Z,5.30
2018-11-20T18:05:18.799Z,5.20
2018-11-20T18:08:13.555Z,5.10
2018-11-20T18:11:04.777Z,5.00
2018-11-20T18:14:10.814Z,5.00
2018-11-20T18:17:02.195Z,4.90
2018-11-20T18:19:58.658Z,4.90
2018-11-20T18:23:04.627Z,4.90
2018-11-20T18:29:09.064Z,4.80
2018-11-20T18:31:59.723Z,4.80
2018-11-20T18:38:10.229Z,4.80
2018-11-20T18:41:10.595Z,4.90
2018-11-20T18:44:13.676Z,4.80
2018-11-20T18:50:17.498Z,5.10
2018-11-20T18:53:19.066Z,4.90
2018-11-20T18:56:18.937Z,5.00
2018-11-20T18:59:15.497Z,5.00
2018-11-20T19:05:27.677Z,5.10
2018-11-20T19:08:19.490Z,5.10
2018-11-20T19:11:11.533Z,5.10
2018-11-20T19:14:12.064Z,5.10
2018-11-20T19:20:04.354Z,5.10
2018-11-20T19:23:04.071Z,5.00
2018-11-20T19:29:01.234Z,4.90
2018-11-20T19:35:06.047Z,4.60
2018-11-20T19:38:03.361Z,4.60
2018-11-20T19:40:56.442Z,4.50
2018-11-20T19:43:56.583Z,4.50
2018-11-20T19:46:52.510Z,4.50
2018-11-20T19:49:51.970Z,4.50
2018-11-20T19:55:56.821Z,4.40
2018-11-20T19:58:52.258Z,4.30
2018-11-20T20:05:01.811Z,4.20
2018-11-20T20:11:07.463Z,4.10
2018-11-20T20:14:08.179Z,4.10
2018-11-20T20:17:02.710Z,4.00
2018-11-20T20:23:07.250Z,4.00
2018-11-20T20:26:04.470Z,4.00
2018-11-20T20:29:05.140Z,4.00
2018-11-20T20:32:10.475Z,3.90
2018-11-20T20:35:11.504Z,4.00
2018-11-20T20:41:15.583Z,3.90
2018-11-20T20:44:15.019Z,3.80
2018-11-20T20:47:15.460Z,3.80
2018-11-20T20:50:16.573Z,3.80
2018-11-20T20:56:07.726Z,3.70
2018-11-20T21:02:12.126Z,3.70
2018-11-20T21:05:12.981Z,3.70
2018-11-20T21:11:16.969Z,3.70
2018-11-20T21:17:25.985Z,3.70
2018-11-20T21:20:26.608Z,3.60
2018-11-20T21:23:29.774Z,3.60
2018-11-20T21:26:30.600Z,3.60
2018-11-20T21:32:27.643Z,3.70
2018-11-20T21:35:29.800Z,3.60
2018-11-20T21:41:33.978Z,3.60
2018-11-20T21:44:34.046Z,3.60
2018-11-20T21:47:33.571Z,3.60
2018-11-20T21:50:39.317Z,3.60
2018-11-20T21:53:39.115Z,3.60
2018-11-20T21:56:39.078Z,3.60
2018-11-20T21:59:41.977Z,3.60
2018-11-20T22:02:41.638Z,3.60
2018-11-20T22:05:34.984Z,3.60
2018-11-20T22:08:35.087Z,3.60
2018-11-20T22:11:34.578Z,3.60
2018-11-20T22:14:34.024Z,3.50
2018-11-20T22:17:39.419Z,3.50
2018-11-20T22:20:39.181Z,3.60
2018-11-20T22:23:35.604Z,3.60
2018-11-20T22:26:24.707Z,3.60
2018-11-20T22:29:16.002Z,3.50
2018-11-20T22:32:16.563Z,3.50
2018-11-20T22:35:15.032Z,3.40
2018-11-20T22:38:22.396Z,3.40
2018-11-20T22:41:29.751Z,3.40
2018-11-20T22:44:36.911Z,3.40
2018-11-20T22:47:44.073Z,3.40
2018-11-20T22:50:43.816Z,3.40
2018-11-20T22:53:42.646Z,3.40
2018-11-20T22:56:50.056Z,3.40
2018-11-20T22:59:57.177Z,3.40
2018-11-20T23:02:53.388Z,3.40
2018-11-20T23:05:59.683Z,3.40
2018-11-20T23:08:47.993Z,3.50
2018-11-20T23:11:36.645Z,3.50
2018-11-20T23:14:25.292Z,3.60
2018-11-20T23:17:13.928Z,3.60
2018-11-20T23:26:04.384Z,3.60
2018-11-20T23:28:53.037Z,3.60
2018-11-20T23:31:41.361Z,3.60
2018-11-20T23:34:29.735Z,3.60
2018-11-20T23:37:18.130Z,3.50
2018-11-20T23:40:07.187Z,3.50
2018-11-20T23:42:55.857Z,3.50
2018-11-20T23:45:44.532Z,3.50
2018-11-20T23:48:33.204Z,3.40
2018-11-20T23:51:21.865Z,3.40
2018-11-20T23:54:10.480Z,3.40
2018-11-20T23:56:58.828Z,3.50
2018-11-20T23:59:47.178Z,3.50
